sensor_id;sensor_type;location;lat;lon;timestamp;P1;durP1;ratioP1;P2;durP2;ratioP2
12177;SDS011;6152;48.728;9.256;2023-07-30T00:00:22;2.47;;;1.90;;
12177;SDS011;6152;48.728;9.256;2023-07-30T00:02:48;2.60;;;2.40;;
12177;SDS011;6152;48.728;9.256;2023-07-30T00:05:14;1.98;;;1.88;;
12177;SDS011;6152;48.728;9.256;2023-07-30T00:07:40;2.25;;;2.10;;
12177;SDS011;6152;48.728;9.256;2023-07-30T00:10:06;2.92;;;2.40;;
12177;SDS011;6152;48.728;9.256;2023-07-30T00:12:32;3.20;;;2.30;;
12177;SDS011;6152;48.728;9.256;2023-07-30T00:14:59;2.90;;;2.33;;
12177;SDS011;6152;48.728;9.256;2023-07-30T00:17:25;2.30;;;2.13;;
12177;SDS011;6152;48.728;9.256;2023-07-30T00:19:51;3.53;;;2.50;;
12177;SDS011;6152;48.728;9.256;2023-07-30T00:22:17;3.53;;;2.10;;
12177;SDS011;6152;48.728;9.256;2023-07-30T00:24:43;2.50;;;2.15;;
12177;SDS011;6152;48.728;9.256;2023-07-30T00:27:09;2.42;;;2.05;;
12177;SDS011;6152;48.728;9.256;2023-07-30T00:29:35;3.22;;;2.20;;
12177;SDS011;6152;48.728;9.256;2023-07-30T00:32:01;3.03;;;2.40;;
12177;SDS011;6152;48.728;9.256;2023-07-30T00:34:27;3.00;;;2.50;;
12177;SDS011;6152;48.728;9.256;2023-07-30T00:36:53;2.70;;;2.50;;
12177;SDS011;6152;48.728;9.256;2023-07-30T00:39:19;3.22;;;2.50;;
12177;SDS011;6152;48.728;9.256;2023-07-30T00:41:46;4.53;;;3.17;;
12177;SDS011;6152;48.728;9.256;2023-07-30T00:44:12;3.90;;;2.83;;
12177;SDS011;6152;48.728;9.256;2023-07-30T00:46:38;3.95;;;2.78;;
12177;SDS011;6152;48.728;9.256;2023-07-30T00:49:04;3.75;;;3.35;;
12177;SDS011;6152;48.728;9.256;2023-07-30T00:51:31;3.58;;;3.15;;
12177;SDS011;6152;48.728;9.256;2023-07-30T00:53:58;3.58;;;2.85;;
12177;SDS011;6152;48.728;9.256;2023-07-30T00:56:25;4.15;;;3.05;;
12177;SDS011;6152;48.728;9.256;2023-07-30T00:58:52;4.95;;;3.30;;
12177;SDS011;6152;48.728;9.256;2023-07-30T01:01:19;3.08;;;2.60;;
12177;SDS011;6152;48.728;9.256;2023-07-30T01:03:45;5.30;;;3.08;;
12177;SDS011;6152;48.728;9.256;2023-07-30T01:06:11;3.47;;;3.17;;
12177;SDS011;6152;48.728;9.256;2023-07-30T01:08:38;3.20;;;2.90;;
12177;SDS011;6152;48.728;9.256;2023-07-30T01:11:04;5.00;;;3.08;;
12177;SDS011;6152;48.728;9.256;2023-07-30T01:13:33;4.07;;;3.67;;
12177;SDS011;6152;48.728;9.256;2023-07-30T01:16:00;5.32;;;3.45;;
12177;SDS011;6152;48.728;9.256;2023-07-30T01:18:28;4.20;;;3.70;;
12177;SDS011;6152;48.728;9.256;2023-07-30T01:20:57;4.20;;;3.35;;
12177;SDS011;6152;48.728;9.256;2023-07-30T01:23:24;5.20;;;3.30;;
12177;SDS011;6152;48.728;9.256;2023-07-30T01:25:54;3.88;;;3.58;;
12177;SDS011;6152;48.728;9.256;2023-07-30T01:28:27;4.07;;;3.33;;
12177;SDS011;6152;48.728;9.256;2023-07-30T01:30:57;3.65;;;3.05;;
12177;SDS011;6152;48.728;9.256;2023-07-30T01:33:26;6.75;;;3.60;;
12177;SDS011;6152;48.728;9.256;2023-07-30T01:35:54;4.22;;;3.58;;
12177;SDS011;6152;48.728;9.256;2023-07-30T01:38:22;5.13;;;3.60;;
12177;SDS011;6152;48.728;9.256;2023-07-30T01:40:48;4.13;;;3.50;;
12177;SDS011;6152;48.728;9.256;2023-07-30T01:43:14;3.75;;;3.45;;
12177;SDS011;6152;48.728;9.256;2023-07-30T01:45:41;4.85;;;3.25;;
12177;SDS011;6152;48.728;9.256;2023-07-30T01:48:07;4.63;;;3.15;;
12177;SDS011;6152;48.728;9.256;2023-07-30T01:50:33;3.58;;;3.28;;
12177;SDS011;6152;48.728;9.256;2023-07-30T01:52:59;4.57;;;3.65;;
12177;SDS011;6152;48.728;9.256;2023-07-30T01:55:25;4.05;;;3.45;;
12177;SDS011;6152;48.728;9.256;2023-07-30T01:57:51;3.92;;;3.55;;
12177;SDS011;6152;48.728;9.256;2023-07-30T02:00:17;5.57;;;3.13;;
12177;SDS011;6152;48.728;9.256;2023-07-30T02:02:44;3.95;;;3.13;;
12177;SDS011;6152;48.728;9.256;2023-07-30T02:05:10;3.90;;;3.00;;
12177;SDS011;6152;48.728;9.256;2023-07-30T02:07:36;4.15;;;3.42;;
12177;SDS011;6152;48.728;9.256;2023-07-30T02:10:02;3.55;;;3.25;;
12177;SDS011;6152;48.728;9.256;2023-07-30T02:12:28;3.50;;;3.17;;
12177;SDS011;6152;48.728;9.256;2023-07-30T02:14:55;3.65;;;2.88;;
12177;SDS011;6152;48.728;9.256;2023-07-30T02:17:21;3.50;;;2.97;;
12177;SDS011;6152;48.728;9.256;2023-07-30T02:19:47;4.07;;;2.95;;
12177;SDS011;6152;48.728;9.256;2023-07-30T02:22:13;3.03;;;2.70;;
12177;SDS011;6152;48.728;9.256;2023-07-30T02:24:39;3.35;;;2.65;;
12177;SDS011;6152;48.728;9.256;2023-07-30T02:27:05;2.60;;;2.40;;
12177;SDS011;6152;48.728;9.256;2023-07-30T02:29:31;4.95;;;3.30;;
12177;SDS011;6152;48.728;9.256;2023-07-30T02:31:57;5.40;;;2.95;;
12177;SDS011;6152;48.728;9.256;2023-07-30T02:34:24;4.22;;;2.55;;
12177;SDS011;6152;48.728;9.256;2023-07-30T02:36:50;2.83;;;2.40;;
12177;SDS011;6152;48.728;9.256;2023-07-30T02:39:16;4.60;;;2.40;;
12177;SDS011;6152;48.728;9.256;2023-07-30T02:41:43;3.83;;;2.50;;
12177;SDS011;6152;48.728;9.256;2023-07-30T02:44:09;3.05;;;2.50;;
12177;SDS011;6152;48.728;9.256;2023-07-30T02:46:35;4.10;;;2.42;;
12177;SDS011;6152;48.728;9.256;2023-07-30T02:49:01;2.63;;;2.42;;
12177;SDS011;6152;48.728;9.256;2023-07-30T02:51:27;2.47;;;2.08;;
12177;SDS011;6152;48.728;9.256;2023-07-30T02:53:56;2.42;;;2.22;;
12177;SDS011;6152;48.728;9.256;2023-07-30T02:56:24;2.45;;;2.25;;
12177;SDS011;6152;48.728;9.256;2023-07-30T02:58:50;2.42;;;2.22;;
12177;SDS011;6152;48.728;9.256;2023-07-30T03:01:16;4.10;;;2.50;;
12177;SDS011;6152;48.728;9.256;2023-07-30T03:03:43;4.68;;;3.70;;
12177;SDS011;6152;48.728;9.256;2023-07-30T03:06:09;7.63;;;5.45;;
12177;SDS011;6152;48.728;9.256;2023-07-30T03:08:35;5.35;;;4.88;;
12177;SDS011;6152;48.728;9.256;2023-07-30T03:11:02;2.97;;;2.63;;
12177;SDS011;6152;48.728;9.256;2023-07-30T03:13:28;3.25;;;2.72;;
12177;SDS011;6152;48.728;9.256;2023-07-30T03:15:54;2.50;;;2.30;;
12177;SDS011;6152;48.728;9.256;2023-07-30T03:18:20;11.10;;;2.75;;
12177;SDS011;6152;48.728;9.256;2023-07-30T03:20:46;2.25;;;2.05;;
12177;SDS011;6152;48.728;9.256;2023-07-30T03:23:12;2.33;;;2.13;;
12177;SDS011;6152;48.728;9.256;2023-07-30T03:25:38;2.42;;;1.95;;
12177;SDS011;6152;48.728;9.256;2023-07-30T03:28:04;3.42;;;2.25;;
12177;SDS011;6152;48.728;9.256;2023-07-30T03:30:31;3.75;;;2.40;;
12177;SDS011;6152;48.728;9.256;2023-07-30T03:32:57;2.33;;;2.05;;
12177;SDS011;6152;48.728;9.256;2023-07-30T03:35:23;2.50;;;1.92;;
12177;SDS011;6152;48.728;9.256;2023-07-30T03:37:49;2.35;;;2.20;;
12177;SDS011;6152;48.728;9.256;2023-07-30T03:40:16;2.45;;;2.25;;
12177;SDS011;6152;48.728;9.256;2023-07-30T03:42:42;7.00;;;2.42;;
12177;SDS011;6152;48.728;9.256;2023-07-30T03:45:08;2.15;;;1.95;;
12177;SDS011;6152;48.728;9.256;2023-07-30T03:47:34;2.75;;;2.55;;
12177;SDS011;6152;48.728;9.256;2023-07-30T03:50:00;4.57;;;2.40;;
12177;SDS011;6152;48.728;9.256;2023-07-30T03:52:26;2.70;;;2.25;;
12177;SDS011;6152;48.728;9.256;2023-07-30T03:54:52;2.70;;;2.42;;
12177;SDS011;6152;48.728;9.256;2023-07-30T03:57:19;2.85;;;2.65;;
12177;SDS011;6152;48.728;9.256;2023-07-30T03:59:45;3.13;;;2.92;;
12177;SDS011;6152;48.728;9.256;2023-07-30T04:02:11;3.03;;;2.72;;
12177;SDS011;6152;48.728;9.256;2023-07-30T04:04:40;5.00;;;2.85;;
12177;SDS011;6152;48.728;9.256;2023-07-30T04:07:08;2.58;;;2.38;;
12177;SDS011;6152;48.728;9.256;2023-07-30T04:09:34;3.08;;;2.78;;
12177;SDS011;6152;48.728;9.256;2023-07-30T04:12:01;2.63;;;2.42;;
12177;SDS011;6152;48.728;9.256;2023-07-30T04:14:27;3.17;;;2.45;;
12177;SDS011;6152;48.728;9.256;2023-07-30T04:16:53;3.53;;;2.60;;
12177;SDS011;6152;48.728;9.256;2023-07-30T04:19:19;3.15;;;2.85;;
12177;SDS011;6152;48.728;9.256;2023-07-30T04:21:46;2.60;;;2.40;;
12177;SDS011;6152;48.728;9.256;2023-07-30T04:24:12;2.65;;;2.45;;
12177;SDS011;6152;48.728;9.256;2023-07-30T04:26:38;3.15;;;2.85;;
12177;SDS011;6152;48.728;9.256;2023-07-30T04:29:04;2.88;;;2.53;;
12177;SDS011;6152;48.728;9.256;2023-07-30T04:31:30;3.22;;;2.90;;
12177;SDS011;6152;48.728;9.256;2023-07-30T04:33:57;5.07;;;2.80;;
12177;SDS011;6152;48.728;9.256;2023-07-30T04:36:23;3.88;;;2.85;;
12177;SDS011;6152;48.728;9.256;2023-07-30T04:38:50;3.00;;;2.70;;
12177;SDS011;6152;48.728;9.256;2023-07-30T04:41:16;4.05;;;2.70;;
12177;SDS011;6152;48.728;9.256;2023-07-30T04:43:43;3.45;;;3.15;;
12177;SDS011;6152;48.728;9.256;2023-07-30T04:46:09;3.85;;;3.55;;
12177;SDS011;6152;48.728;9.256;2023-07-30T04:48:36;4.00;;;3.60;;
12177;SDS011;6152;48.728;9.256;2023-07-30T04:51:03;4.68;;;3.60;;
12177;SDS011;6152;48.728;9.256;2023-07-30T04:53:29;3.60;;;3.30;;
12177;SDS011;6152;48.728;9.256;2023-07-30T04:55:55;3.92;;;3.47;;
12177;SDS011;6152;48.728;9.256;2023-07-30T04:58:24;4.20;;;3.58;;
12177;SDS011;6152;48.728;9.256;2023-07-30T05:00:50;5.72;;;3.55;;
12177;SDS011;6152;48.728;9.256;2023-07-30T05:03:16;3.28;;;2.90;;
12177;SDS011;6152;48.728;9.256;2023-07-30T05:05:43;3.80;;;3.50;;
12177;SDS011;6152;48.728;9.256;2023-07-30T05:08:09;3.63;;;3.33;;
12177;SDS011;6152;48.728;9.256;2023-07-30T05:10:35;3.85;;;3.45;;
12177;SDS011;6152;48.728;9.256;2023-07-30T05:13:01;4.57;;;3.40;;
12177;SDS011;6152;48.728;9.256;2023-07-30T05:15:27;3.50;;;3.20;;
12177;SDS011;6152;48.728;9.256;2023-07-30T05:17:53;7.18;;;3.80;;
12177;SDS011;6152;48.728;9.256;2023-07-30T05:20:19;3.80;;;3.42;;
12177;SDS011;6152;48.728;9.256;2023-07-30T05:22:46;3.80;;;3.30;;
12177;SDS011;6152;48.728;9.256;2023-07-30T05:25:12;3.47;;;3.05;;
12177;SDS011;6152;48.728;9.256;2023-07-30T05:27:38;3.63;;;3.20;;
12177;SDS011;6152;48.728;9.256;2023-07-30T05:30:04;4.88;;;3.17;;
12177;SDS011;6152;48.728;9.256;2023-07-30T05:32:31;3.65;;;3.35;;
12177;SDS011;6152;48.728;9.256;2023-07-30T05:34:57;5.00;;;3.53;;
12177;SDS011;6152;48.728;9.256;2023-07-30T05:37:23;3.92;;;3.20;;
12177;SDS011;6152;48.728;9.256;2023-07-30T05:39:49;5.30;;;3.15;;
12177;SDS011;6152;48.728;9.256;2023-07-30T05:42:15;3.53;;;2.85;;
12177;SDS011;6152;48.728;9.256;2023-07-30T05:44:41;2.85;;;2.65;;
12177;SDS011;6152;48.728;9.256;2023-07-30T05:47:07;2.60;;;2.40;;
12177;SDS011;6152;48.728;9.256;2023-07-30T05:49:33;3.20;;;2.38;;
12177;SDS011;6152;48.728;9.256;2023-07-30T05:52:00;2.97;;;2.60;;
12177;SDS011;6152;48.728;9.256;2023-07-30T05:54:26;3.05;;;2.75;;
12177;SDS011;6152;48.728;9.256;2023-07-30T05:56:52;2.72;;;2.53;;
12177;SDS011;6152;48.728;9.256;2023-07-30T05:59:18;4.20;;;2.10;;
12177;SDS011;6152;48.728;9.256;2023-07-30T06:01:44;2.47;;;2.28;;
12177;SDS011;6152;48.728;9.256;2023-07-30T06:04:11;2.25;;;2.15;;
12177;SDS011;6152;48.728;9.256;2023-07-30T06:06:37;2.33;;;2.08;;
12177;SDS011;6152;48.728;9.256;2023-07-30T06:09:03;2.17;;;1.98;;
12177;SDS011;6152;48.728;9.256;2023-07-30T06:11:29;2.50;;;2.30;;
12177;SDS011;6152;48.728;9.256;2023-07-30T06:13:55;2.30;;;2.10;;
12177;SDS011;6152;48.728;9.256;2023-07-30T06:16:21;2.28;;;2.08;;
12177;SDS011;6152;48.728;9.256;2023-07-30T06:18:47;1.80;;;1.70;;
12177;SDS011;6152;48.728;9.256;2023-07-30T06:21:13;2.42;;;2.10;;
12177;SDS011;6152;48.728;9.256;2023-07-30T06:23:39;2.33;;;2.13;;
12177;SDS011;6152;48.728;9.256;2023-07-30T06:26:06;2.15;;;1.92;;
12177;SDS011;6152;48.728;9.256;2023-07-30T06:28:32;2.38;;;2.20;;
12177;SDS011;6152;48.728;9.256;2023-07-30T06:31:01;2.08;;;1.90;;
12177;SDS011;6152;48.728;9.256;2023-07-30T06:33:28;2.60;;;1.92;;
12177;SDS011;6152;48.728;9.256;2023-07-30T06:35:54;2.15;;;1.95;;
12177;SDS011;6152;48.728;9.256;2023-07-30T06:38:20;1.45;;;1.35;;
12177;SDS011;6152;48.728;9.256;2023-07-30T06:40:46;2.53;;;1.73;;
12177;SDS011;6152;48.728;9.256;2023-07-30T06:43:12;1.88;;;1.63;;
12177;SDS011;6152;48.728;9.256;2023-07-30T06:45:38;1.45;;;1.35;;
12177;SDS011;6152;48.728;9.256;2023-07-30T06:48:05;4.95;;;1.20;;
12177;SDS011;6152;48.728;9.256;2023-07-30T06:50:31;1.42;;;1.33;;
12177;SDS011;6152;48.728;9.256;2023-07-30T06:52:57;2.25;;;1.17;;
12177;SDS011;6152;48.728;9.256;2023-07-30T06:55:23;1.80;;;1.40;;
12177;SDS011;6152;48.728;9.256;2023-07-30T06:57:49;2.17;;;1.33;;
12177;SDS011;6152;48.728;9.256;2023-07-30T07:00:15;1.10;;;1.10;;
12177;SDS011;6152;48.728;9.256;2023-07-30T07:02:49;2.42;;;1.40;;
12177;SDS011;6152;48.728;9.256;2023-07-30T07:05:16;1.15;;;1.00;;
12177;SDS011;6152;48.728;9.256;2023-07-30T07:07:42;1.42;;;1.20;;
12177;SDS011;6152;48.728;9.256;2023-07-30T07:10:08;2.92;;;1.02;;
12177;SDS011;6152;48.728;9.256;2023-07-30T07:12:35;0.95;;;0.95;;
12177;SDS011;6152;48.728;9.256;2023-07-30T07:15:03;4.15;;;1.08;;
12177;SDS011;6152;48.728;9.256;2023-07-30T07:17:30;1.40;;;1.00;;
12177;SDS011;6152;48.728;9.256;2023-07-30T07:19:56;3.50;;;1.05;;
12177;SDS011;6152;48.728;9.256;2023-07-30T07:22:23;1.92;;;0.80;;
12177;SDS011;6152;48.728;9.256;2023-07-30T07:24:50;2.35;;;0.93;;
12177;SDS011;6152;48.728;9.256;2023-07-30T07:27:20;1.95;;;0.90;;
12177;SDS011;6152;48.728;9.256;2023-07-30T07:29:48;2.60;;;1.20;;
12177;SDS011;6152;48.728;9.256;2023-07-30T07:32:14;1.00;;;1.00;;
12177;SDS011;6152;48.728;9.256;2023-07-30T07:34:40;1.52;;;0.88;;
12177;SDS011;6152;48.728;9.256;2023-07-30T07:37:10;1.80;;;0.90;;
12177;SDS011;6152;48.728;9.256;2023-07-30T07:39:36;1.50;;;1.23;;
12177;SDS011;6152;48.728;9.256;2023-07-30T07:42:02;1.67;;;1.02;;
12177;SDS011;6152;48.728;9.256;2023-07-30T07:44:28;0.90;;;0.90;;
12177;SDS011;6152;48.728;9.256;2023-07-30T07:46:54;0.80;;;0.80;;
12177;SDS011;6152;48.728;9.256;2023-07-30T07:49:20;2.20;;;0.85;;
12177;SDS011;6152;48.728;9.256;2023-07-30T07:51:46;1.02;;;0.75;;
12177;SDS011;6152;48.728;9.256;2023-07-30T07:54:12;1.52;;;0.93;;
12177;SDS011;6152;48.728;9.256;2023-07-30T07:56:38;1.40;;;1.33;;
12177;SDS011;6152;48.728;9.256;2023-07-30T07:59:05;1.20;;;1.20;;
12177;SDS011;6152;48.728;9.256;2023-07-30T08:01:31;2.30;;;0.98;;
12177;SDS011;6152;48.728;9.256;2023-07-30T08:03:57;1.48;;;0.70;;
12177;SDS011;6152;48.728;9.256;2023-07-30T08:06:23;0.95;;;0.63;;
12177;SDS011;6152;48.728;9.256;2023-07-30T08:08:49;1.98;;;0.65;;
12177;SDS011;6152;48.728;9.256;2023-07-30T08:11:15;1.85;;;0.90;;
12177;SDS011;6152;48.728;9.256;2023-07-30T08:13:42;1.10;;;0.85;;
12177;SDS011;6152;48.728;9.256;2023-07-30T08:16:08;1.83;;;0.70;;
12177;SDS011;6152;48.728;9.256;2023-07-30T08:18:34;0.98;;;0.60;;
12177;SDS011;6152;48.728;9.256;2023-07-30T08:21:00;1.33;;;0.52;;
12177;SDS011;6152;48.728;9.256;2023-07-30T08:23:26;1.25;;;0.82;;
12177;SDS011;6152;48.728;9.256;2023-07-30T08:25:52;1.45;;;0.57;;
12177;SDS011;6152;48.728;9.256;2023-07-30T08:28:18;0.75;;;0.52;;
12177;SDS011;6152;48.728;9.256;2023-07-30T08:30:45;1.08;;;0.70;;
12177;SDS011;6152;48.728;9.256;2023-07-30T08:33:11;0.52;;;0.52;;
12177;SDS011;6152;48.728;9.256;2023-07-30T08:35:37;1.88;;;0.93;;
12177;SDS011;6152;48.728;9.256;2023-07-30T08:38:03;0.82;;;0.80;;
12177;SDS011;6152;48.728;9.256;2023-07-30T08:40:29;1.75;;;0.68;;
12177;SDS011;6152;48.728;9.256;2023-07-30T08:42:56;0.80;;;0.80;;
12177;SDS011;6152;48.728;9.256;2023-07-30T08:45:23;0.43;;;0.43;;
12177;SDS011;6152;48.728;9.256;2023-07-30T08:47:49;0.80;;;0.80;;
12177;SDS011;6152;48.728;9.256;2023-07-30T08:50:15;2.17;;;0.50;;
12177;SDS011;6152;48.728;9.256;2023-07-30T08:52:42;1.30;;;0.60;;
12177;SDS011;6152;48.728;9.256;2023-07-30T08:55:08;0.65;;;0.65;;
12177;SDS011;6152;48.728;9.256;2023-07-30T08:57:36;0.50;;;0.50;;
12177;SDS011;6152;48.728;9.256;2023-07-30T09:00:04;0.52;;;0.50;;
12177;SDS011;6152;48.728;9.256;2023-07-30T09:05:04;0.40;;;0.40;;
12177;SDS011;6152;48.728;9.256;2023-07-30T09:07:31;0.60;;;0.60;;
12177;SDS011;6152;48.728;9.256;2023-07-30T09:09:58;1.65;;;0.70;;
12177;SDS011;6152;48.728;9.256;2023-07-30T09:12:30;1.52;;;0.65;;
12177;SDS011;6152;48.728;9.256;2023-07-30T09:14:57;0.47;;;0.47;;
12177;SDS011;6152;48.728;9.256;2023-07-30T09:17:24;0.52;;;0.52;;
12177;SDS011;6152;48.728;9.256;2023-07-30T09:19:51;0.43;;;0.43;;
12177;SDS011;6152;48.728;9.256;2023-07-30T09:22:24;0.73;;;0.73;;
12177;SDS011;6152;48.728;9.256;2023-07-30T09:24:55;2.15;;;0.60;;
12177;SDS011;6152;48.728;9.256;2023-07-30T09:27:23;0.50;;;0.50;;
12177;SDS011;6152;48.728;9.256;2023-07-30T09:30:01;0.60;;;0.60;;
12177;SDS011;6152;48.728;9.256;2023-07-30T09:32:31;1.27;;;0.80;;
12177;SDS011;6152;48.728;9.256;2023-07-30T09:35:05;2.08;;;0.73;;
12177;SDS011;6152;48.728;9.256;2023-07-30T09:37:39;0.63;;;0.63;;
12177;SDS011;6152;48.728;9.256;2023-07-30T09:40:07;0.93;;;0.80;;
12177;SDS011;6152;48.728;9.256;2023-07-30T09:42:35;0.52;;;0.52;;
12177;SDS011;6152;48.728;9.256;2023-07-30T09:45:04;0.70;;;0.70;;
12177;SDS011;6152;48.728;9.256;2023-07-30T09:47:36;0.95;;;0.95;;
12177;SDS011;6152;48.728;9.256;2023-07-30T09:50:03;2.03;;;1.00;;
12177;SDS011;6152;48.728;9.256;2023-07-30T09:52:29;1.85;;;1.00;;
12177;SDS011;6152;48.728;9.256;2023-07-30T09:54:59;3.08;;;1.15;;
12177;SDS011;6152;48.728;9.256;2023-07-30T09:57:25;2.13;;;1.08;;
12177;SDS011;6152;48.728;9.256;2023-07-30T09:59:51;0.90;;;0.90;;
12177;SDS011;6152;48.728;9.256;2023-07-30T10:02:21;1.85;;;0.95;;
12177;SDS011;6152;48.728;9.256;2023-07-30T10:05:15;0.73;;;0.73;;
12177;SDS011;6152;48.728;9.256;2023-07-30T10:08:00;0.63;;;0.50;;
12177;SDS011;6152;48.728;9.256;2023-07-30T10:10:32;1.52;;;0.70;;
12177;SDS011;6152;48.728;9.256;2023-07-30T10:13:00;1.48;;;0.90;;
12177;SDS011;6152;48.728;9.256;2023-07-30T10:15:30;1.00;;;0.85;;
12177;SDS011;6152;48.728;9.256;2023-07-30T10:18:00;1.67;;;1.00;;
12177;SDS011;6152;48.728;9.256;2023-07-30T10:20:26;1.10;;;1.05;;
12177;SDS011;6152;48.728;9.256;2023-07-30T10:22:57;1.52;;;0.90;;
12177;SDS011;6152;48.728;9.256;2023-07-30T10:25:28;0.80;;;0.80;;
12177;SDS011;6152;48.728;9.256;2023-07-30T10:27:55;1.33;;;0.75;;
12177;SDS011;6152;48.728;9.256;2023-07-30T10:30:27;0.57;;;0.55;;
12177;SDS011;6152;48.728;9.256;2023-07-30T10:33:04;0.65;;;0.65;;
12177;SDS011;6152;48.728;9.256;2023-07-30T10:35:34;1.05;;;0.88;;
12177;SDS011;6152;48.728;9.256;2023-07-30T10:38:22;0.90;;;0.80;;
12177;SDS011;6152;48.728;9.256;2023-07-30T10:43:33;0.98;;;0.98;;
12177;SDS011;6152;48.728;9.256;2023-07-30T10:46:01;1.77;;;0.90;;
12177;SDS011;6152;48.728;9.256;2023-07-30T10:48:32;1.15;;;0.65;;
12177;SDS011;6152;48.728;9.256;2023-07-30T10:51:00;5.65;;;0.98;;
12177;SDS011;6152;48.728;9.256;2023-07-30T10:53:27;1.10;;;1.00;;
12177;SDS011;6152;48.728;9.256;2023-07-30T10:55:53;0.80;;;0.80;;
12177;SDS011;6152;48.728;9.256;2023-07-30T10:58:24;1.40;;;0.70;;
12177;SDS011;6152;48.728;9.256;2023-07-30T11:00:51;0.80;;;0.80;;
12177;SDS011;6152;48.728;9.256;2023-07-30T11:03:18;1.50;;;1.00;;
12177;SDS011;6152;48.728;9.256;2023-07-30T11:05:47;0.90;;;0.90;;
12177;SDS011;6152;48.728;9.256;2023-07-30T11:08:13;2.47;;;1.00;;
12177;SDS011;6152;48.728;9.256;2023-07-30T11:10:46;3.08;;;0.80;;
12177;SDS011;6152;48.728;9.256;2023-07-30T11:13:13;0.85;;;0.77;;
12177;SDS011;6152;48.728;9.256;2023-07-30T11:15:43;1.48;;;0.80;;
12177;SDS011;6152;48.728;9.256;2023-07-30T11:18:10;1.02;;;0.93;;
12177;SDS011;6152;48.728;9.256;2023-07-30T11:20:37;2.45;;;0.70;;
12177;SDS011;6152;48.728;9.256;2023-07-30T11:23:19;2.05;;;1.15;;
12177;SDS011;6152;48.728;9.256;2023-07-30T11:25:47;2.03;;;1.00;;
12177;SDS011;6152;48.728;9.256;2023-07-30T11:28:29;3.17;;;1.30;;
12177;SDS011;6152;48.728;9.256;2023-07-30T11:33:33;1.60;;;1.00;;
12177;SDS011;6152;48.728;9.256;2023-07-30T11:36:02;1.13;;;1.02;;
12177;SDS011;6152;48.728;9.256;2023-07-30T11:38:29;1.25;;;1.15;;
12177;SDS011;6152;48.728;9.256;2023-07-30T11:40:56;1.25;;;1.05;;
12177;SDS011;6152;48.728;9.256;2023-07-30T11:43:23;1.00;;;1.00;;
12177;SDS011;6152;48.728;9.256;2023-07-30T11:46:05;1.63;;;0.70;;
12177;SDS011;6152;48.728;9.256;2023-07-30T11:48:35;1.10;;;0.82;;
12177;SDS011;6152;48.728;9.256;2023-07-30T11:51:02;1.27;;;0.82;;
12177;SDS011;6152;48.728;9.256;2023-07-30T11:56:18;3.35;;;1.30;;
12177;SDS011;6152;48.728;9.256;2023-07-30T11:58:47;1.10;;;0.98;;
12177;SDS011;6152;48.728;9.256;2023-07-30T12:01:17;1.73;;;0.75;;
12177;SDS011;6152;48.728;9.256;2023-07-30T12:03:43;2.05;;;1.30;;
12177;SDS011;6152;48.728;9.256;2023-07-30T12:06:10;1.23;;;0.80;;
12177;SDS011;6152;48.728;9.256;2023-07-30T12:08:37;1.15;;;1.00;;
12177;SDS011;6152;48.728;9.256;2023-07-30T12:11:04;1.83;;;1.08;;
12177;SDS011;6152;48.728;9.256;2023-07-30T12:13:32;2.10;;;0.90;;
12177;SDS011;6152;48.728;9.256;2023-07-30T12:15:58;1.00;;;1.00;;
12177;SDS011;6152;48.728;9.256;2023-07-30T12:18:26;1.10;;;0.98;;
12177;SDS011;6152;48.728;9.256;2023-07-30T12:20:54;1.27;;;1.15;;
12177;SDS011;6152;48.728;9.256;2023-07-30T12:23:21;0.95;;;0.85;;
12177;SDS011;6152;48.728;9.256;2023-07-30T12:25:47;1.27;;;1.00;;
12177;SDS011;6152;48.728;9.256;2023-07-30T12:28:13;1.42;;;1.00;;
12177;SDS011;6152;48.728;9.256;2023-07-30T12:30:39;1.50;;;0.90;;
12177;SDS011;6152;48.728;9.256;2023-07-30T12:33:05;0.82;;;0.82;;
12177;SDS011;6152;48.728;9.256;2023-07-30T12:35:32;1.40;;;1.27;;
12177;SDS011;6152;48.728;9.256;2023-07-30T12:37:58;1.73;;;1.00;;
12177;SDS011;6152;48.728;9.256;2023-07-30T12:40:25;0.88;;;0.88;;
12177;SDS011;6152;48.728;9.256;2023-07-30T12:42:54;1.58;;;0.80;;
12177;SDS011;6152;48.728;9.256;2023-07-30T12:45:20;1.52;;;1.10;;
12177;SDS011;6152;48.728;9.256;2023-07-30T12:47:46;1.50;;;1.40;;
12177;SDS011;6152;48.728;9.256;2023-07-30T12:50:13;2.42;;;1.33;;
12177;SDS011;6152;48.728;9.256;2023-07-30T12:52:39;0.90;;;0.85;;
12177;SDS011;6152;48.728;9.256;2023-07-30T12:55:05;2.65;;;1.10;;
12177;SDS011;6152;48.728;9.256;2023-07-30T12:57:32;2.17;;;1.17;;
12177;SDS011;6152;48.728;9.256;2023-07-30T12:59:58;1.25;;;0.85;;
12177;SDS011;6152;48.728;9.256;2023-07-30T13:02:24;2.45;;;1.08;;
12177;SDS011;6152;48.728;9.256;2023-07-30T13:04:50;1.65;;;0.98;;
12177;SDS011;6152;48.728;9.256;2023-07-30T13:07:16;2.30;;;1.17;;
12177;SDS011;6152;48.728;9.256;2023-07-30T13:09:42;1.40;;;1.00;;
12177;SDS011;6152;48.728;9.256;2023-07-30T13:12:10;0.85;;;0.73;;
12177;SDS011;6152;48.728;9.256;2023-07-30T13:14:36;1.02;;;0.93;;
12177;SDS011;6152;48.728;9.256;2023-07-30T13:17:03;2.15;;;1.30;;
12177;SDS011;6152;48.728;9.256;2023-07-30T13:19:29;1.15;;;1.00;;
12177;SDS011;6152;48.728;9.256;2023-07-30T13:21:57;1.80;;;1.08;;
12177;SDS011;6152;48.728;9.256;2023-07-30T13:24:23;1.77;;;1.38;;
12177;SDS011;6152;48.728;9.256;2023-07-30T13:26:49;1.10;;;1.00;;
12177;SDS011;6152;48.728;9.256;2023-07-30T13:29:15;1.38;;;1.10;;
12177;SDS011;6152;48.728;9.256;2023-07-30T13:31:41;1.40;;;1.15;;
12177;SDS011;6152;48.728;9.256;2023-07-30T13:34:07;1.10;;;1.00;;
12177;SDS011;6152;48.728;9.256;2023-07-30T13:36:33;2.25;;;1.08;;
12177;SDS011;6152;48.728;9.256;2023-07-30T13:38:59;1.55;;;1.00;;
12177;SDS011;6152;48.728;9.256;2023-07-30T13:41:25;0.90;;;0.90;;
12177;SDS011;6152;48.728;9.256;2023-07-30T13:43:51;1.27;;;1.17;;
12177;SDS011;6152;48.728;9.256;2023-07-30T13:46:18;2.50;;;1.00;;
12177;SDS011;6152;48.728;9.256;2023-07-30T13:48:44;2.00;;;0.90;;
12177;SDS011;6152;48.728;9.256;2023-07-30T13:51:10;1.38;;;0.90;;
12177;SDS011;6152;48.728;9.256;2023-07-30T13:53:36;1.60;;;1.13;;
12177;SDS011;6152;48.728;9.256;2023-07-30T13:56:06;1.80;;;0.90;;
12177;SDS011;6152;48.728;9.256;2023-07-30T13:58:32;4.30;;;1.15;;
12177;SDS011;6152;48.728;9.256;2023-07-30T14:00:58;0.95;;;0.80;;
12177;SDS011;6152;48.728;9.256;2023-07-30T14:03:24;1.15;;;0.88;;
12177;SDS011;6152;48.728;9.256;2023-07-30T14:05:50;1.27;;;1.17;;
12177;SDS011;6152;48.728;9.256;2023-07-30T14:08:16;1.38;;;1.13;;
12177;SDS011;6152;48.728;9.256;2023-07-30T14:10:43;1.48;;;0.98;;
12177;SDS011;6152;48.728;9.256;2023-07-30T14:13:10;1.98;;;1.15;;
12177;SDS011;6152;48.728;9.256;2023-07-30T14:15:36;0.80;;;0.80;;
12177;SDS011;6152;48.728;9.256;2023-07-30T14:18:02;1.92;;;1.08;;
12177;SDS011;6152;48.728;9.256;2023-07-30T14:20:28;1.17;;;0.80;;
12177;SDS011;6152;48.728;9.256;2023-07-30T14:22:54;1.02;;;0.85;;
12177;SDS011;6152;48.728;9.256;2023-07-30T14:25:20;1.63;;;0.80;;
12177;SDS011;6152;48.728;9.256;2023-07-30T14:27:46;2.80;;;0.85;;
12177;SDS011;6152;48.728;9.256;2023-07-30T14:30:13;1.60;;;1.02;;
12177;SDS011;6152;48.728;9.256;2023-07-30T14:32:39;0.80;;;0.70;;
12177;SDS011;6152;48.728;9.256;2023-07-30T14:35:05;0.90;;;0.82;;
12177;SDS011;6152;48.728;9.256;2023-07-30T14:37:31;1.08;;;1.08;;
12177;SDS011;6152;48.728;9.256;2023-07-30T14:39:57;2.03;;;0.95;;
12177;SDS011;6152;48.728;9.256;2023-07-30T14:42:23;2.10;;;1.00;;
12177;SDS011;6152;48.728;9.256;2023-07-30T14:44:50;1.23;;;0.95;;
12177;SDS011;6152;48.728;9.256;2023-07-30T14:47:16;2.45;;;1.27;;
12177;SDS011;6152;48.728;9.256;2023-07-30T14:49:42;1.33;;;0.93;;
12177;SDS011;6152;48.728;9.256;2023-07-30T14:52:08;1.17;;;0.95;;
12177;SDS011;6152;48.728;9.256;2023-07-30T14:54:35;1.58;;;0.93;;
12177;SDS011;6152;48.728;9.256;2023-07-30T14:57:01;2.90;;;1.00;;
12177;SDS011;6152;48.728;9.256;2023-07-30T14:59:27;1.20;;;1.13;;
12177;SDS011;6152;48.728;9.256;2023-07-30T15:01:53;1.10;;;0.98;;
12177;SDS011;6152;48.728;9.256;2023-07-30T15:04:19;2.40;;;0.90;;
12177;SDS011;6152;48.728;9.256;2023-07-30T15:06:46;1.17;;;0.90;;
12177;SDS011;6152;48.728;9.256;2023-07-30T15:09:12;1.80;;;0.90;;